createdAt,value
2018-11-01T00:01:19.901Z,80.10
2018-11-01T00:03:49.380Z,80.10
2018-11-01T00:06:18.857Z,80.00
2018-11-01T00:08:48.460Z,80.00
2018-11-01T00:11:18.528Z,80.00
2018-11-01T00:13:48.052Z,80.00
2018-11-01T00:16:17.446Z,80.00
2018-11-01T00:18:46.972Z,80.10
2018-11-01T00:21:16.892Z,80.20
2018-11-01T00:23:46.391Z,80.30
2018-11-01T00:26:15.748Z,80.50
2018-11-01T00:28:45.262Z,80.60
2018-11-01T00:31:14.730Z,80.60
2018-11-01T00:33:44.857Z,80.60
2018-11-01T00:36:14.477Z,80.60
2018-11-01T00:38:43.928Z,80.50
2018-11-01T00:41:13.451Z,80.50
2018-11-01T00:43:42.947Z,80.50
2018-11-01T00:46:12.440Z,80.50
2018-11-01T00:48:41.928Z,80.50
2018-11-01T00:51:11.970Z,80.50
2018-11-01T00:53:41.365Z,80.30
2018-11-01T00:56:10.831Z,80.20
2018-11-01T00:58:40.423Z,80.10
2018-11-01T01:01:10.028Z,80.20
2018-11-01T01:03:39.636Z,80.10
2018-11-01T01:06:09.287Z,80.00
2018-11-01T01:08:38.951Z,79.90
2018-11-01T01:11:08.392Z,79.80
2018-11-01T01:13:37.905Z,79.70
2018-11-01T01:16:07.877Z,79.60
2018-11-01T01:18:37.488Z,79.50
2018-11-01T01:21:07.406Z,79.40
2018-11-01T01:23:37.234Z,79.40
2018-11-01T01:26:07.540Z,79.30
2018-11-01T01:28:37.110Z,79.10
2018-11-01T01:31:06.755Z,79.30
2018-11-01T01:33:36.338Z,79.20
2018-11-01T01:36:05.946Z,79.30
2018-11-01T01:38:35.396Z,79.20
2018-11-01T01:41:04.812Z,79.30
2018-11-01T01:43:34.354Z,79.20
2018-11-01T01:46:03.894Z,79.20
2018-11-01T01:48:33.328Z,79.30
2018-11-01T01:51:02.869Z,79.30
2018-11-01T01:53:32.268Z,79.30
2018-11-01T01:56:01.808Z,79.40
2018-11-01T01:58:31.312Z,79.40
2018-11-01T02:01:00.792Z,79.60
2018-11-01T02:03:30.321Z,79.60
2018-11-01T02:05:59.790Z,79.60
2018-11-01T02:08:29.278Z,79.60
2018-11-01T02:10:59.728Z,79.60
2018-11-01T02:13:29.351Z,79.60
2018-11-01T02:15:58.840Z,79.60
2018-11-01T02:18:28.380Z,79.60
2018-11-01T02:20:58.062Z,79.70
2018-11-01T02:23:27.575Z,79.70
2018-11-01T02:25:57.070Z,79.70
2018-11-01T02:28:26.525Z,79.70
2018-11-01T02:30:56.114Z,79.70
2018-11-01T02:33:25.654Z,79.70
2018-11-01T02:35:55.203Z,79.70
2018-11-01T02:38:25.387Z,79.70
2018-11-01T02:40:54.846Z,79.60
2018-11-01T02:43:24.321Z,79.60
2018-11-01T02:45:54.049Z,79.60
2018-11-01T02:48:23.738Z,79.50
2018-11-01T02:50:53.540Z,79.50
2018-11-01T02:53:23.796Z,79.50
2018-11-01T02:55:53.677Z,79.40
2018-11-01T02:58:23.378Z,79.30
2018-11-01T03:00:53.228Z,79.30
2018-11-01T03:03:23.391Z,79.30
2018-11-01T03:05:53.370Z,79.30
2018-11-01T03:08:23.118Z,79.40
2018-11-01T03:10:52.696Z,79.40
2018-11-01T03:13:22.204Z,79.40
2018-11-01T03:15:51.589Z,79.30
2018-11-01T03:18:21.099Z,79.40
2018-11-01T03:20:50.701Z,79.40
2018-11-01T03:23:20.514Z,79.40
2018-11-01T03:25:49.991Z,79.50
2018-11-01T03:28:19.431Z,79.40
2018-11-01T03:30:48.870Z,79.60
2018-11-01T03:33:18.421Z,79.60
2018-11-01T03:35:48.071Z,79.70
2018-11-01T03:38:18.500Z,79.70
2018-11-01T03:40:47.973Z,79.80
2018-11-01T03:43:17.571Z,79.90
2018-11-01T03:45:47.632Z,79.80
2018-11-01T03:48:17.203Z,79.70
2018-11-01T03:50:46.674Z,80.50
2018-11-01T03:53:16.149Z,79.70
2018-11-01T03:55:45.639Z,79.80
2018-11-01T03:58:14.996Z,79.80
2018-11-01T04:00:44.445Z,79.90
2018-11-01T04:03:13.929Z,79.90
2018-11-01T04:05:43.393Z,79.90
2018-11-01T04:08:12.939Z,79.90
2018-11-01T04:10:42.424Z,79.90
2018-11-01T04:13:12.777Z,79.90
2018-11-01T04:15:42.298Z,79.90
2018-11-01T04:18:11.750Z,79.90
2018-11-01T04:20:41.178Z,79.90
2018-11-01T04:23:10.701Z,80.00
2018-11-01T04:25:40.184Z,80.00
2018-11-01T04:28:09.632Z,79.90
2018-11-01T04:30:39.106Z,80.00
2018-11-01T04:33:08.629Z,80.00
2018-11-01T04:35:38.187Z,80.00
2018-11-01T04:38:07.590Z,80.00
2018-11-01T04:40:37.549Z,80.00
2018-11-01T04:43:07.170Z,80.00
2018-11-01T04:45:36.640Z,80.00
2018-11-01T04:48:06.429Z,80.80
2018-11-01T04:50:35.871Z,80.00
2018-11-01T04:53:05.602Z,80.00
2018-11-01T04:55:35.085Z,80.00
2018-11-01T04:58:04.604Z,80.00
2018-11-01T05:00:34.111Z,80.00
2018-11-01T05:03:03.584Z,80.00
2018-11-01T05:05:33.514Z,80.10
2018-11-01T05:08:03.068Z,80.20
2018-11-01T05:10:32.549Z,80.20
2018-11-01T05:13:01.894Z,80.20
2018-11-01T05:15:31.442Z,80.00
2018-11-01T05:18:00.930Z,80.00
2018-11-01T05:20:30.336Z,80.60
2018-11-01T05:22:59.764Z,79.80
2018-11-01T05:25:29.577Z,79.90
2018-11-01T05:27:59.471Z,79.70
2018-11-01T05:30:29.040Z,79.80
2018-11-01T05:32:58.478Z,79.80
2018-11-01T05:35:27.992Z,79.80
2018-11-01T05:37:57.738Z,79.90
2018-11-01T05:40:27.313Z,80.00
2018-11-01T05:42:56.798Z,80.40
2018-11-01T05:45:26.260Z,80.20
2018-11-01T05:47:55.784Z,80.30
2018-11-01T05:50:25.225Z,80.40
2018-11-01T05:52:54.718Z,80.40
2018-11-01T05:55:24.170Z,80.50
2018-11-01T05:57:53.606Z,80.50
2018-11-01T06:00:23.064Z,80.50
2018-11-01T06:02:53.080Z,80.60
2018-11-01T06:05:22.526Z,80.50
2018-11-01T06:07:59.433Z,80.40
2018-11-01T06:10:28.991Z,80.40
2018-11-01T06:12:58.513Z,80.40
2018-11-01T06:15:28.087Z,80.40
2018-11-01T06:17:57.620Z,81.20
2018-11-01T06:20:27.260Z,80.50
2018-11-01T06:22:56.767Z,80.60
2018-11-01T06:25:26.257Z,80.60
2018-11-01T06:27:55.821Z,80.80
2018-11-01T06:30:25.341Z,80.70
2018-11-01T06:32:54.827Z,80.70
2018-11-01T06:35:27.888Z,80.90
2018-11-01T06:37:58.756Z,80.90
2018-11-01T06:40:28.408Z,80.80
2018-11-01T06:42:58.119Z,80.90
2018-11-01T06:45:27.700Z,80.80
2018-11-01T06:47:57.706Z,80.80
2018-11-01T06:50:27.336Z,81.70
2018-11-01T06:52:56.819Z,80.80
2018-11-01T06:55:26.850Z,80.90
2018-11-01T06:57:56.338Z,80.90
2018-11-01T07:00:25.840Z,80.90
2018-11-01T07:02:55.342Z,80.90
2018-11-01T07:05:24.793Z,80.90
2018-11-01T07:07:54.268Z,80.90
2018-11-01T07:10:24.342Z,80.90
2018-11-01T07:12:54.457Z,81.10
2018-11-01T07:15:23.970Z,81.10
2018-11-01T07:17:53.378Z,81.10
2018-11-01T07:20:22.851Z,81.10
2018-11-01T07:22:52.551Z,81.20
2018-11-01T07:25:22.121Z,81.20
2018-11-01T07:27:51.523Z,81.20
2018-11-01T07:30:21.005Z,81.20
2018-11-01T07:32:50.495Z,81.30
2018-11-01T07:35:19.934Z,81.20
2018-11-01T07:37:49.593Z,81.20
2018-11-01T07:40:19.995Z,81.40
2018-11-01T07:42:49.461Z,81.20
2018-11-01T07:45:19.781Z,81.30
2018-11-01T07:47:49.404Z,81.40
2018-11-01T07:50:18.969Z,81.30
2018-11-01T07:52:48.694Z,81.40
2018-11-01T07:55:19.094Z,81.40
2018-11-01T07:57:48.765Z,81.30
2018-11-01T08:00:19.150Z,81.40
2018-11-01T08:02:48.734Z,81.40
2018-11-01T08:05:18.220Z,81.30
2018-11-01T08:07:47.804Z,81.30
2018-11-01T08:10:18.482Z,81.40
2018-11-01T08:12:49.216Z,81.50
2018-11-01T08:15:20.344Z,81.50
2018-11-01T08:17:50.036Z,81.50
2018-11-01T08:20:19.839Z,81.50
2018-11-01T08:22:49.261Z,81.50
2018-11-01T08:25:18.892Z,81.50
2018-11-01T08:27:48.453Z,81.50
2018-11-01T08:30:18.614Z,81.60
2018-11-01T08:32:48.127Z,80.30
2018-11-01T08:35:17.775Z,80.40
2018-11-01T08:37:47.384Z,80.30
2018-11-01T08:40:17.201Z,80.20
2018-11-01T08:42:47.135Z,80.20
2018-11-01T08:45:17.011Z,80.10
2018-11-01T08:47:46.933Z,80.00
2018-11-01T08:50:16.983Z,80.00
2018-11-01T08:52:46.483Z,80.10
2018-11-01T08:55:16.030Z,80.10
2018-11-01T08:57:46.440Z,80.10
2018-11-01T09:00:15.969Z,80.10
2018-11-01T09:02:45.711Z,79.90
2018-11-01T09:05:15.383Z,80.00
2018-11-01T09:07:45.107Z,80.00
2018-11-01T09:10:16.001Z,79.90
2018-11-01T09:12:45.769Z,79.90
2018-11-01T09:15:16.525Z,79.90
2018-11-01T09:17:46.159Z,80.70
2018-11-01T09:20:16.632Z,79.60
2018-11-01T09:22:46.218Z,79.60
2018-11-01T09:25:15.694Z,79.40
2018-11-01T09:27:45.419Z,78.70
2018-11-01T09:30:15.968Z,79.30
2018-11-01T09:32:45.636Z,79.30
2018-11-01T09:35:15.096Z,79.20
2018-11-01T09:37:44.688Z,79.20
2018-11-01T09:40:15.499Z,79.30
2018-11-01T09:42:45.504Z,79.10
2018-11-01T09:45:15.046Z,79.10
2018-11-01T09:47:45.853Z,79.00
2018-11-01T09:50:15.051Z,79.70
2018-11-01T09:52:44.560Z,78.70
2018-11-01T09:55:13.992Z,78.80
2018-11-01T09:57:43.470Z,78.60
2018-11-01T10:00:14.269Z,78.60
2018-11-01T10:02:44.251Z,78.60
2018-11-01T10:05:13.775Z,78.60
2018-11-01T10:07:43.201Z,78.60
2018-11-01T10:10:13.699Z,78.60
2018-11-01T10:12:43.133Z,78.60
2018-11-01T10:15:13.072Z,78.50
2018-11-01T10:17:43.015Z,78.50
2018-11-01T10:20:13.996Z,78.20
2018-11-01T10:22:44.071Z,77.90
2018-11-01T10:25:15.088Z,77.90
2018-11-01T10:27:44.633Z,77.60
2018-11-01T10:30:16.290Z,77.70
2018-11-01T10:32:46.066Z,77.90
2018-11-01T10:35:16.737Z,78.20
2018-11-01T10:37:46.362Z,78.10
2018-11-01T10:40:18.205Z,78.10
2018-11-01T10:42:47.611Z,78.10
2018-11-01T10:45:17.086Z,78.20
2018-11-01T10:47:48.028Z,78.30
2018-11-01T10:50:18.863Z,78.00
2018-11-01T10:52:48.764Z,78.00
2018-11-01T10:55:18.960Z,78.00
2018-11-01T10:57:48.936Z,78.00
2018-11-01T11:00:23.831Z,78.10
2018-11-01T11:02:53.388Z,78.10
2018-11-01T11:05:23.268Z,78.00
2018-11-01T11:07:52.778Z,78.00
2018-11-01T11:10:22.297Z,77.90
2018-11-01T11:12:52.320Z,77.70
2018-11-01T11:15:22.019Z,77.70
2018-11-01T11:17:51.821Z,76.90
2018-11-01T11:20:21.481Z,77.60
2018-11-01T11:22:50.987Z,77.50
2018-11-01T11:25:20.439Z,77.50
2018-11-01T11:27:49.962Z,77.30
2018-11-01T11:30:20.154Z,77.30
2018-11-01T11:32:49.697Z,77.30
2018-11-01T11:35:20.036Z,77.10
2018-11-01T11:37:49.630Z,77.20
2018-11-01T11:40:20.618Z,77.10
2018-11-01T11:42:50.377Z,77.80
2018-11-01T11:45:20.980Z,76.80
2018-11-01T11:47:50.915Z,77.40
2018-11-01T11:50:20.537Z,76.70
2018-11-01T11:52:50.067Z,76.70
2018-11-01T11:55:19.667Z,77.40
2018-11-01T11:57:49.318Z,76.50
2018-11-01T12:00:19.476Z,76.50
2018-11-01T12:02:49.082Z,76.50
2018-11-01T12:05:18.739Z,76.30
2018-11-01T12:07:48.458Z,76.10
2018-11-01T12:10:18.087Z,75.60
2018-11-01T12:12:47.726Z,75.50
2018-11-01T12:15:17.269Z,75.60
2018-11-01T12:17:46.830Z,75.50
2018-11-01T12:20:16.212Z,75.60
2018-11-01T12:22:45.737Z,75.70
2018-11-01T12:25:15.353Z,75.80
2018-11-01T12:27:44.864Z,76.50
2018-11-01T12:30:14.261Z,75.60
2018-11-01T12:32:43.683Z,75.80
2018-11-01T12:35:13.210Z,76.10
2018-11-01T12:37:42.634Z,75.80
2018-11-01T12:40:13.092Z,75.80
2018-11-01T12:42:42.863Z,75.70
2018-11-01T12:45:13.219Z,75.40
2018-11-01T12:47:42.949Z,75.30
2018-11-01T12:50:14.273Z,75.40
2018-11-01T12:52:43.603Z,75.40
2018-11-01T12:55:13.091Z,75.10
2018-11-01T12:57:42.570Z,74.80
2018-11-01T13:00:13.233Z,74.80
2018-11-01T13:02:42.983Z,75.00
2018-11-01T13:05:12.357Z,75.00
2018-11-01T13:07:41.815Z,75.10
2018-11-01T13:10:11.578Z,75.00
2018-11-01T13:12:40.971Z,74.90
2018-11-01T13:15:12.182Z,75.00
2018-11-01T13:17:41.813Z,75.00
2018-11-01T13:20:11.770Z,74.60
2018-11-01T13:22:41.366Z,74.60
2018-11-01T13:25:11.794Z,74.60
2018-11-01T13:27:41.405Z,74.80
2018-11-01T13:30:13.345Z,75.00
2018-11-01T13:32:44.219Z,75.00
2018-11-01T13:35:15.311Z,75.10
2018-11-01T13:37:46.941Z,75.20
2018-11-01T13:40:16.672Z,75.20
2018-11-01T13:42:48.093Z,75.30
2018-11-01T13:45:17.553Z,75.30
2018-11-01T13:47:47.315Z,75.40
2018-11-01T13:50:16.803Z,75.40
2018-11-01T13:52:46.322Z,75.50
2018-11-01T13:55:15.840Z,75.50
2018-11-01T13:57:45.626Z,75.50
2018-11-01T14:00:16.041Z,75.60
2018-11-01T14:02:45.715Z,75.70
2018-11-01T14:05:16.386Z,75.90
2018-11-01T14:07:46.070Z,75.90
2018-11-01T14:10:17.305Z,75.90
2018-11-01T14:12:46.958Z,75.90
2018-11-01T14:15:17.101Z,76.00
2018-11-01T14:17:46.194Z,76.20
2018-11-01T14:20:16.616Z,76.20
2018-11-01T14:22:47.024Z,76.20
2018-11-01T14:25:17.351Z,76.00
2018-11-01T14:27:46.962Z,76.00
2018-11-01T14:30:17.356Z,75.90
2018-11-01T14:32:46.916Z,75.80
2018-11-01T14:35:16.459Z,75.70
2018-11-01T14:37:45.883Z,75.50
2018-11-01T14:40:15.631Z,75.30
2018-11-01T14:42:45.245Z,75.00
2018-11-01T14:45:14.787Z,74.60
2018-11-01T14:47:44.449Z,74.30
2018-11-01T14:50:13.931Z,74.40
2018-11-01T14:52:44.120Z,74.30
2018-11-01T14:55:13.469Z,74.10
2018-11-01T14:57:43.859Z,74.10
2018-11-01T15:00:12.795Z,74.10
2018-11-01T15:02:43.473Z,74.30
2018-11-01T15:05:12.917Z,74.00
2018-11-01T15:07:42.467Z,73.80
2018-11-01T15:10:13.782Z,73.60
2018-11-01T15:12:44.214Z,73.40
2018-11-01T15:15:13.731Z,73.20
2018-11-01T15:17:43.332Z,73.10
2018-11-01T15:20:13.247Z,73.20
2018-11-01T15:22:43.693Z,73.10
2018-11-01T15:25:13.521Z,73.10
2018-11-01T15:27:43.097Z,73.00
2018-11-01T15:30:15.452Z,73.10
2018-11-01T15:32:45.487Z,73.10
2018-11-01T15:35:14.934Z,73.30
2018-11-01T15:37:44.446Z,73.30
2018-11-01T15:40:14.365Z,73.40
2018-11-01T15:42:48.745Z,73.40
2018-11-01T15:45:18.423Z,72.90
2018-11-01T15:47:48.063Z,73.40
2018-11-01T15:50:17.565Z,73.40
2018-11-01T15:52:48.258Z,73.50
2018-11-01T15:55:17.742Z,73.60
2018-11-01T15:57:47.204Z,73.70
2018-11-01T16:00:16.812Z,73.80
2018-11-01T16:02:47.071Z,74.00
2018-11-01T16:05:16.640Z,74.10
2018-11-01T16:07:48.294Z,74.20
2018-11-01T16:10:17.804Z,74.20
2018-11-01T16:12:48.128Z,74.20
2018-11-01T16:15:17.671Z,74.20
2018-11-01T16:17:47.176Z,74.20
2018-11-01T16:20:16.695Z,74.30
2018-11-01T16:22:46.260Z,74.40
2018-11-01T16:25:15.703Z,74.50
2018-11-01T16:27:45.237Z,74.60
2018-11-01T16:30:14.816Z,74.70
2018-11-01T16:32:44.310Z,74.80
2018-11-01T16:35:13.822Z,74.90
2018-11-01T16:37:43.450Z,74.90
2018-11-01T16:40:13.260Z,74.80
2018-11-01T16:42:42.859Z,74.90
2018-11-01T16:45:14.953Z,75.00
2018-11-01T16:47:44.441Z,75.00
2018-11-01T16:50:13.855Z,75.10
2018-11-01T16:52:43.562Z,76.40
2018-11-01T16:55:13.047Z,76.50
2018-11-01T16:57:42.576Z,76.50
2018-11-01T17:13:17.006Z,76.60
2018-11-01T17:15:46.588Z,76.60
2018-11-01T17:18:16.064Z,75.30
2018-11-01T17:20:46.163Z,76.20
2018-11-01T17:23:15.695Z,76.90
2018-11-01T17:25:45.197Z,77.30
2018-11-01T17:28:15.922Z,77.60
2018-11-01T17:30:45.779Z,77.80
2018-11-01T17:33:15.857Z,77.90
2018-11-01T17:35:50.253Z,78.00
2018-11-01T17:38:19.672Z,78.00
2018-11-01T17:40:50.664Z,77.90
2018-11-01T17:43:20.513Z,77.90
2018-11-01T17:45:50.202Z,77.80
2018-11-01T17:48:19.863Z,77.80
2018-11-01T17:50:49.417Z,77.80
2018-11-01T17:53:19.507Z,77.70
2018-11-01T17:55:49.121Z,77.80
2018-11-01T17:58:18.701Z,77.00
2018-11-01T18:00:52.334Z,77.60
2018-11-01T18:03:21.951Z,77.50
2018-11-01T18:05:51.497Z,77.70
2018-11-01T18:08:21.856Z,78.50
2018-11-01T18:10:51.720Z,77.80
2018-11-01T18:13:21.604Z,77.80
2018-11-01T18:15:52.153Z,77.90
2018-11-01T18:18:21.772Z,77.80
2018-11-01T18:20:51.483Z,77.80
2018-11-01T18:23:21.762Z,77.70
2018-11-01T18:25:51.760Z,77.80
2018-11-01T18:28:21.605Z,77.80
2018-11-01T18:30:51.153Z,77.70
2018-11-01T18:33:20.818Z,77.80
2018-11-01T18:35:50.694Z,77.80
2018-11-01T18:38:20.429Z,77.80
2018-11-01T18:41:04.622Z,77.80
2018-11-01T18:43:34.418Z,78.00
2018-11-01T18:46:03.904Z,77.90
2018-11-01T18:48:33.403Z,77.90
2018-11-01T18:51:03.089Z,77.90
2018-11-01T18:53:32.838Z,77.90
2018-11-01T18:56:02.380Z,78.00
2018-11-01T18:58:32.608Z,78.10
2018-11-01T19:01:02.299Z,78.20
2018-11-01T19:03:32.719Z,78.10
2018-11-01T19:06:04.663Z,78.30
2018-11-01T19:08:34.104Z,78.20
2018-11-01T19:11:04.269Z,78.10
2018-11-01T19:13:33.813Z,78.10
2018-11-01T19:16:03.498Z,78.70
2018-11-01T19:18:33.722Z,78.20
2018-11-01T19:21:03.941Z,78.20
2018-11-01T19:23:33.359Z,78.30
2018-11-01T19:26:09.833Z,78.20
2018-11-01T19:28:39.635Z,78.20
2018-11-01T19:31:09.324Z,78.20
2018-11-01T19:33:39.605Z,78.20
2018-11-01T19:36:09.173Z,78.10
2018-11-01T19:38:38.635Z,78.10
2018-11-01T19:41:08.148Z,78.60
2018-11-01T19:43:37.781Z,78.60
2018-11-01T19:46:07.568Z,78.80
2018-11-01T19:48:37.530Z,79.00
2018-11-01T19:51:08.078Z,79.30
2018-11-01T19:53:38.006Z,79.50
2018-11-01T19:56:07.826Z,80.30
2018-11-01T19:58:37.405Z,79.70
2018-11-01T20:01:06.931Z,79.90
2018-11-01T20:03:37.081Z,79.90
2018-11-01T20:06:07.161Z,79.70
2018-11-01T20:08:38.199Z,79.50
2018-11-01T20:11:07.809Z,79.30
2018-11-01T20:13:37.959Z,79.10
2018-11-01T20:16:08.234Z,78.90
2018-11-01T20:18:38.793Z,78.90
2018-11-01T20:21:08.387Z,78.70
2018-11-01T20:23:41.386Z,78.80
2018-11-01T20:26:12.009Z,78.70
2018-11-01T20:28:41.855Z,78.70
2018-11-01T20:31:13.306Z,78.70
2018-11-01T20:33:44.625Z,78.70
2018-11-01T20:36:14.066Z,78.60
2018-11-01T20:38:45.588Z,78.60
2018-11-01T20:41:15.741Z,78.60
2018-11-01T20:43:45.296Z,78.70
2018-11-01T20:46:14.915Z,78.70
2018-11-01T20:48:44.396Z,78.70
2018-11-01T20:51:15.707Z,78.80
2018-11-01T20:53:45.060Z,78.80
2018-11-01T20:56:14.502Z,78.60
2018-11-01T20:58:44.180Z,78.60
2018-11-01T21:01:13.764Z,78.40
2018-11-01T21:03:43.490Z,78.40
2018-11-01T21:06:13.090Z,79.60
2018-11-01T21:08:42.570Z,78.80
2018-11-01T21:11:12.399Z,78.90
2018-11-01T21:13:41.942Z,78.90
2018-11-01T21:16:11.534Z,79.60
2018-11-01T21:18:40.993Z,78.80
2018-11-01T21:21:11.668Z,78.90
2018-11-01T21:23:41.638Z,78.80
2018-11-01T21:26:11.399Z,79.00
2018-11-01T21:28:40.870Z,79.30
2018-11-01T21:31:10.542Z,79.60
2018-11-01T21:33:40.090Z,79.70
2018-11-01T21:36:09.657Z,79.60
2018-11-01T21:38:39.817Z,79.40
2018-11-01T21:41:09.321Z,79.50
2018-11-01T21:43:38.865Z,79.60
2018-11-01T21:46:09.703Z,79.70
2018-11-01T21:48:39.203Z,79.80
2018-11-01T21:51:09.023Z,79.80
2018-11-01T21:53:38.601Z,79.60
2018-11-01T21:56:08.551Z,79.60
2018-11-01T21:58:38.140Z,79.40
2018-11-01T22:01:07.949Z,79.40
2018-11-01T22:03:37.482Z,79.50
2018-11-01T22:06:07.146Z,79.60
2018-11-01T22:08:38.046Z,79.70
2018-11-01T22:11:07.532Z,79.70
2018-11-01T22:13:37.326Z,79.80
2018-11-01T22:16:07.555Z,80.00
2018-11-01T22:18:38.025Z,80.20
2018-11-01T22:21:07.532Z,80.40
2018-11-01T22:23:37.050Z,80.40
2018-11-01T22:26:07.212Z,80.40
2018-11-01T22:28:40.997Z,80.50
2018-11-01T22:31:10.398Z,80.50
2018-11-01T22:33:39.863Z,80.50
2018-11-01T22:36:09.379Z,80.60
2018-11-01T22:38:40.227Z,80.30
2018-11-01T22:41:10.077Z,80.20
2018-11-01T22:46:11.442Z,80.20
2018-11-01T22:48:41.037Z,79.90
2018-11-01T22:51:11.484Z,81.00
2018-11-01T22:53:41.119Z,80.50
2018-11-01T22:56:11.616Z,80.60
2018-11-01T22:58:42.147Z,80.90
2018-11-01T23:01:12.164Z,81.00
2018-11-01T23:03:41.654Z,81.10
2018-11-01T23:06:11.257Z,81.10
2018-11-01T23:08:40.769Z,81.00
2018-11-01T23:11:11.053Z,80.80
2018-11-01T23:13:40.617Z,80.70
2018-11-01T23:16:10.099Z,80.80
2018-11-01T23:18:39.731Z,80.80
2018-11-01T23:21:09.294Z,80.70
2018-11-01T23:23:38.967Z,80.70
2018-11-01T23:26:09.152Z,80.50
2018-11-01T23:28:38.722Z,80.60
2018-11-01T23:31:09.076Z,80.60
2018-11-01T23:33:38.680Z,80.80
2018-11-01T23:36:07.169Z,80.90
2018-11-01T23:38:41.856Z,81.70
2018-11-01T23:41:16.520Z,80.80
2018-11-01T23:43:51.245Z,80.70
2018-11-01T23:46:26.559Z,81.30
2018-11-01T23:49:05.528Z,80.90
2018-11-01T23:51:38.956Z,80.90
2018-11-01T23:54:08.652Z,81.10
2018-11-01T23:56:38.842Z,81.20
2018-11-01T23:59:15.678Z,81.40
